Terminal Aerodrome Forecast
Issued by NWS Grand Forks, ND

Home | Current Version | Previous Version | Text Only | Print | Product List | Glossary Off
Versions: 1 2 3 4 5 6 7 8 9 10 11 12 13 14 15 16 17 18 19 20

290
FTUS43 KFGF 091720
TAFFAR
TAF
KFAR 091720Z 0918/1018 34012KT P6SM OVC060
      TEMPO 0918/0922 -SN
     FM100200 36006KT P6SM BKN120
     FM101000 VRB06KT P6SM BKN080=

USA.gov is the U.S. government's official web portal to all federal, state and local government web resources and services.